sensor_id;sensor_type;location;lat;lon;timestamp;P1;durP1;ratioP1;P2;durP2;ratioP2
36423;SDS011;22458;45.328;9.514;2023-04-24T00:00:01;5.00;;;3.42;;
36423;SDS011;22458;45.328;9.514;2023-04-24T00:02:37;4.82;;;3.20;;
36423;SDS011;22458;45.328;9.514;2023-04-24T00:05:04;4.20;;;3.30;;
36423;SDS011;22458;45.328;9.514;2023-04-24T00:07:31;4.53;;;3.33;;
36423;SDS011;22458;45.328;9.514;2023-04-24T00:09:57;6.93;;;3.45;;
36423;SDS011;22458;45.328;9.514;2023-04-24T00:12:23;5.15;;;3.67;;
36423;SDS011;22458;45.328;9.514;2023-04-24T00:17:18;5.97;;;3.90;;
36423;SDS011;22458;45.328;9.514;2023-04-24T00:19:46;5.80;;;3.95;;
36423;SDS011;22458;45.328;9.514;2023-04-24T00:22:27;5.85;;;4.40;;
36423;SDS011;22458;45.328;9.514;2023-04-24T00:24:53;4.15;;;3.67;;
36423;SDS011;22458;45.328;9.514;2023-04-24T00:27:20;5.63;;;3.88;;
36423;SDS011;22458;45.328;9.514;2023-04-24T00:29:46;5.57;;;3.78;;
36423;SDS011;22458;45.328;9.514;2023-04-24T00:32:12;5.05;;;4.32;;
36423;SDS011;22458;45.328;9.514;2023-04-24T00:34:38;4.75;;;3.83;;
36423;SDS011;22458;45.328;9.514;2023-04-24T00:37:04;5.47;;;4.05;;
36423;SDS011;22458;45.328;9.514;2023-04-24T00:39:31;4.65;;;3.75;;
36423;SDS011;22458;45.328;9.514;2023-04-24T00:41:57;5.53;;;4.18;;
36423;SDS011;22458;45.328;9.514;2023-04-24T00:44:23;5.43;;;3.95;;
36423;SDS011;22458;45.328;9.514;2023-04-24T00:46:49;5.22;;;3.70;;
36423;SDS011;22458;45.328;9.514;2023-04-24T00:49:20;5.05;;;3.80;;
36423;SDS011;22458;45.328;9.514;2023-04-24T00:51:46;4.40;;;3.63;;
36423;SDS011;22458;45.328;9.514;2023-04-24T00:54:12;6.85;;;4.55;;
36423;SDS011;22458;45.328;9.514;2023-04-24T00:56:39;5.30;;;4.00;;
36423;SDS011;22458;45.328;9.514;2023-04-24T00:59:05;5.38;;;3.88;;
36423;SDS011;22458;45.328;9.514;2023-04-24T01:01:32;4.35;;;3.95;;
36423;SDS011;22458;45.328;9.514;2023-04-24T01:03:58;6.57;;;3.92;;
36423;SDS011;22458;45.328;9.514;2023-04-24T01:06:27;4.25;;;3.85;;
36423;SDS011;22458;45.328;9.514;2023-04-24T01:08:54;8.68;;;4.25;;
36423;SDS011;22458;45.328;9.514;2023-04-24T01:11:21;4.95;;;4.43;;
36423;SDS011;22458;45.328;9.514;2023-04-24T01:13:47;5.47;;;4.53;;
36423;SDS011;22458;45.328;9.514;2023-04-24T01:16:16;5.35;;;4.28;;
36423;SDS011;22458;45.328;9.514;2023-04-24T01:18:44;5.50;;;4.35;;
36423;SDS011;22458;45.328;9.514;2023-04-24T01:21:11;4.55;;;4.15;;
36423;SDS011;22458;45.328;9.514;2023-04-24T01:23:39;5.10;;;4.05;;
36423;SDS011;22458;45.328;9.514;2023-04-24T01:26:05;5.22;;;4.38;;
36423;SDS011;22458;45.328;9.514;2023-04-24T01:28:31;5.25;;;4.38;;
36423;SDS011;22458;45.328;9.514;2023-04-24T01:30:57;5.22;;;4.72;;
36423;SDS011;22458;45.328;9.514;2023-04-24T01:33:25;7.53;;;4.90;;
36423;SDS011;22458;45.328;9.514;2023-04-24T01:35:51;6.05;;;4.32;;
36423;SDS011;22458;45.328;9.514;2023-04-24T01:38:17;6.22;;;4.93;;
36423;SDS011;22458;45.328;9.514;2023-04-24T01:40:43;5.68;;;5.00;;
36423;SDS011;22458;45.328;9.514;2023-04-24T01:43:08;6.18;;;4.75;;
36423;SDS011;22458;45.328;9.514;2023-04-24T01:45:34;6.30;;;4.72;;
36423;SDS011;22458;45.328;9.514;2023-04-24T01:48:03;6.53;;;4.85;;
36423;SDS011;22458;45.328;9.514;2023-04-24T01:50:28;5.75;;;4.95;;
36423;SDS011;22458;45.328;9.514;2023-04-24T01:52:54;6.10;;;5.47;;
36423;SDS011;22458;45.328;9.514;2023-04-24T01:55:20;6.47;;;5.00;;
36423;SDS011;22458;45.328;9.514;2023-04-24T01:57:46;5.20;;;4.70;;
36423;SDS011;22458;45.328;9.514;2023-04-24T02:00:12;7.47;;;5.25;;
36423;SDS011;22458;45.328;9.514;2023-04-24T02:02:41;6.38;;;4.55;;
36423;SDS011;22458;45.328;9.514;2023-04-24T02:05:07;6.45;;;4.90;;
36423;SDS011;22458;45.328;9.514;2023-04-24T02:07:35;6.70;;;5.15;;
36423;SDS011;22458;45.328;9.514;2023-04-24T02:10:01;6.03;;;5.05;;
36423;SDS011;22458;45.328;9.514;2023-04-24T02:12:29;5.80;;;4.93;;
36423;SDS011;22458;45.328;9.514;2023-04-24T02:14:55;7.97;;;5.07;;
36423;SDS011;22458;45.328;9.514;2023-04-24T02:17:20;6.03;;;5.20;;
36423;SDS011;22458;45.328;9.514;2023-04-24T02:19:46;4.97;;;4.57;;
36423;SDS011;22458;45.328;9.514;2023-04-24T02:22:12;7.05;;;5.28;;
36423;SDS011;22458;45.328;9.514;2023-04-24T02:24:38;5.80;;;4.40;;
36423;SDS011;22458;45.328;9.514;2023-04-24T02:27:05;6.43;;;4.80;;
36423;SDS011;22458;45.328;9.514;2023-04-24T02:29:31;5.88;;;4.70;;
36423;SDS011;22458;45.328;9.514;2023-04-24T02:31:57;6.13;;;4.60;;
36423;SDS011;22458;45.328;9.514;2023-04-24T02:34:23;6.43;;;4.65;;
36423;SDS011;22458;45.328;9.514;2023-04-24T02:36:49;6.45;;;4.63;;
36423;SDS011;22458;45.328;9.514;2023-04-24T02:39:15;5.60;;;4.75;;
36423;SDS011;22458;45.328;9.514;2023-04-24T02:41:42;6.25;;;5.00;;
36423;SDS011;22458;45.328;9.514;2023-04-24T02:44:08;5.65;;;5.00;;
36423;SDS011;22458;45.328;9.514;2023-04-24T02:46:34;7.97;;;5.20;;
36423;SDS011;22458;45.328;9.514;2023-04-24T02:49:00;6.55;;;5.10;;
36423;SDS011;22458;45.328;9.514;2023-04-24T02:51:25;7.03;;;4.50;;
36423;SDS011;22458;45.328;9.514;2023-04-24T02:53:52;6.03;;;5.28;;
36423;SDS011;22458;45.328;9.514;2023-04-24T02:56:18;5.07;;;4.65;;
36423;SDS011;22458;45.328;9.514;2023-04-24T02:58:44;5.90;;;4.85;;
36423;SDS011;22458;45.328;9.514;2023-04-24T03:01:10;6.45;;;5.25;;
36423;SDS011;22458;45.328;9.514;2023-04-24T03:03:36;6.30;;;5.68;;
36423;SDS011;22458;45.328;9.514;2023-04-24T03:06:03;6.25;;;5.63;;
36423;SDS011;22458;45.328;9.514;2023-04-24T03:08:31;8.25;;;5.45;;
36423;SDS011;22458;45.328;9.514;2023-04-24T03:10:57;8.40;;;5.97;;
36423;SDS011;22458;45.328;9.514;2023-04-24T03:13:23;6.22;;;5.18;;
36423;SDS011;22458;45.328;9.514;2023-04-24T03:15:49;7.88;;;5.80;;
36423;SDS011;22458;45.328;9.514;2023-04-24T03:18:14;6.25;;;5.65;;
36423;SDS011;22458;45.328;9.514;2023-04-24T03:20:41;6.47;;;5.80;;
36423;SDS011;22458;45.328;9.514;2023-04-24T03:23:07;6.43;;;5.70;;
36423;SDS011;22458;45.328;9.514;2023-04-24T03:25:34;6.93;;;6.03;;
36423;SDS011;22458;45.328;9.514;2023-04-24T03:28:01;5.80;;;5.20;;
36423;SDS011;22458;45.328;9.514;2023-04-24T03:30:42;6.47;;;5.47;;
36423;SDS011;22458;45.328;9.514;2023-04-24T03:33:09;10.93;;;6.60;;
36423;SDS011;22458;45.328;9.514;2023-04-24T03:35:40;6.05;;;5.40;;
36423;SDS011;22458;45.328;9.514;2023-04-24T03:38:09;6.72;;;6.03;;
36423;SDS011;22458;45.328;9.514;2023-04-24T03:40:41;7.97;;;5.50;;
36423;SDS011;22458;45.328;9.514;2023-04-24T03:43:21;6.95;;;5.38;;
36423;SDS011;22458;45.328;9.514;2023-04-24T03:45:48;7.03;;;6.05;;
36423;SDS011;22458;45.328;9.514;2023-04-24T03:48:15;7.18;;;5.82;;
36423;SDS011;22458;45.328;9.514;2023-04-24T03:50:41;9.52;;;5.75;;
36423;SDS011;22458;45.328;9.514;2023-04-24T03:53:10;7.00;;;6.00;;
36423;SDS011;22458;45.328;9.514;2023-04-24T03:55:39;6.90;;;6.13;;
36423;SDS011;22458;45.328;9.514;2023-04-24T03:58:04;7.65;;;5.93;;
36423;SDS011;22458;45.328;9.514;2023-04-24T04:00:31;7.28;;;6.03;;
36423;SDS011;22458;45.328;9.514;2023-04-24T04:03:17;7.85;;;5.90;;
36423;SDS011;22458;45.328;9.514;2023-04-24T04:05:43;9.15;;;6.10;;
36423;SDS011;22458;45.328;9.514;2023-04-24T04:08:09;7.00;;;6.30;;
36423;SDS011;22458;45.328;9.514;2023-04-24T04:10:34;6.82;;;6.13;;
36423;SDS011;22458;45.328;9.514;2023-04-24T04:13:03;6.75;;;6.15;;
36423;SDS011;22458;45.328;9.514;2023-04-24T04:15:29;8.93;;;6.82;;
36423;SDS011;22458;45.328;9.514;2023-04-24T04:17:55;8.25;;;6.93;;
36423;SDS011;22458;45.328;9.514;2023-04-24T04:20:21;9.65;;;6.55;;
36423;SDS011;22458;45.328;9.514;2023-04-24T04:22:47;7.20;;;6.50;;
36423;SDS011;22458;45.328;9.514;2023-04-24T04:25:19;8.15;;;6.28;;
36423;SDS011;22458;45.328;9.514;2023-04-24T04:27:45;7.85;;;6.82;;
36423;SDS011;22458;45.328;9.514;2023-04-24T04:30:13;7.80;;;6.72;;
36423;SDS011;22458;45.328;9.514;2023-04-24T04:32:47;7.60;;;5.95;;
36423;SDS011;22458;45.328;9.514;2023-04-24T04:35:13;7.50;;;6.00;;
36423;SDS011;22458;45.328;9.514;2023-04-24T04:37:39;9.30;;;7.28;;
36423;SDS011;22458;45.328;9.514;2023-04-24T04:40:14;8.20;;;6.60;;
36423;SDS011;22458;45.328;9.514;2023-04-24T04:42:48;7.85;;;6.85;;
36423;SDS011;22458;45.328;9.514;2023-04-24T04:45:18;7.57;;;6.28;;
36423;SDS011;22458;45.328;9.514;2023-04-24T04:48:05;7.35;;;6.45;;
36423;SDS011;22458;45.328;9.514;2023-04-24T04:50:33;8.60;;;6.90;;
36423;SDS011;22458;45.328;9.514;2023-04-24T04:53:04;8.57;;;7.38;;
36423;SDS011;22458;45.328;9.514;2023-04-24T04:55:33;8.20;;;6.72;;
36423;SDS011;22458;45.328;9.514;2023-04-24T04:58:12;7.95;;;6.10;;
36423;SDS011;22458;45.328;9.514;2023-04-24T05:00:38;8.40;;;7.32;;
36423;SDS011;22458;45.328;9.514;2023-04-24T05:03:15;7.70;;;6.57;;
36423;SDS011;22458;45.328;9.514;2023-04-24T05:05:41;8.15;;;6.80;;
36423;SDS011;22458;45.328;9.514;2023-04-24T05:08:10;7.65;;;6.85;;
36423;SDS011;22458;45.328;9.514;2023-04-24T05:10:36;9.02;;;7.38;;
36423;SDS011;22458;45.328;9.514;2023-04-24T05:13:03;9.60;;;7.60;;
36423;SDS011;22458;45.328;9.514;2023-04-24T05:15:30;9.60;;;6.78;;
36423;SDS011;22458;45.328;9.514;2023-04-24T05:17:58;7.05;;;6.32;;
36423;SDS011;22458;45.328;9.514;2023-04-24T05:20:25;8.98;;;7.50;;
36423;SDS011;22458;45.328;9.514;2023-04-24T05:22:52;8.40;;;7.50;;
36423;SDS011;22458;45.328;9.514;2023-04-24T05:25:21;8.88;;;7.97;;
36423;SDS011;22458;45.328;9.514;2023-04-24T05:27:55;8.13;;;7.25;;
36423;SDS011;22458;45.328;9.514;2023-04-24T05:30:21;8.82;;;7.65;;
36423;SDS011;22458;45.328;9.514;2023-04-24T05:32:48;10.43;;;7.78;;
36423;SDS011;22458;45.328;9.514;2023-04-24T05:35:14;10.20;;;7.72;;
36423;SDS011;22458;45.328;9.514;2023-04-24T05:37:40;8.13;;;7.32;;
36423;SDS011;22458;45.328;9.514;2023-04-24T05:40:07;8.57;;;7.63;;
36423;SDS011;22458;45.328;9.514;2023-04-24T05:42:34;8.55;;;7.65;;
36423;SDS011;22458;45.328;9.514;2023-04-24T05:45:01;8.90;;;8.00;;
36423;SDS011;22458;45.328;9.514;2023-04-24T05:47:26;8.60;;;7.70;;
36423;SDS011;22458;45.328;9.514;2023-04-24T05:49:53;10.43;;;8.15;;
36423;SDS011;22458;45.328;9.514;2023-04-24T05:52:19;9.43;;;7.78;;
36423;SDS011;22458;45.328;9.514;2023-04-24T05:54:46;8.93;;;7.43;;
36423;SDS011;22458;45.328;9.514;2023-04-24T05:57:17;10.13;;;7.90;;
36423;SDS011;22458;45.328;9.514;2023-04-24T05:59:56;9.85;;;7.93;;
36423;SDS011;22458;45.328;9.514;2023-04-24T06:02:24;8.68;;;7.78;;
36423;SDS011;22458;45.328;9.514;2023-04-24T06:04:50;9.43;;;7.78;;
36423;SDS011;22458;45.328;9.514;2023-04-24T06:07:16;10.35;;;8.18;;
36423;SDS011;22458;45.328;9.514;2023-04-24T06:09:43;8.60;;;7.43;;
36423;SDS011;22458;45.328;9.514;2023-04-24T06:12:10;10.38;;;9.07;;
36423;SDS011;22458;45.328;9.514;2023-04-24T06:14:49;10.27;;;9.27;;
36423;SDS011;22458;45.328;9.514;2023-04-24T06:17:23;9.65;;;8.75;;
36423;SDS011;22458;45.328;9.514;2023-04-24T06:19:49;9.80;;;8.82;;
36423;SDS011;22458;45.328;9.514;2023-04-24T06:22:15;11.20;;;8.35;;
36423;SDS011;22458;45.328;9.514;2023-04-24T06:24:41;14.30;;;9.65;;
36423;SDS011;22458;45.328;9.514;2023-04-24T06:27:07;10.27;;;9.20;;
36423;SDS011;22458;45.328;9.514;2023-04-24T06:29:33;10.10;;;8.93;;
36423;SDS011;22458;45.328;9.514;2023-04-24T06:31:58;10.93;;;9.32;;
36423;SDS011;22458;45.328;9.514;2023-04-24T06:34:24;10.93;;;9.65;;
36423;SDS011;22458;45.328;9.514;2023-04-24T06:36:50;10.35;;;9.27;;
36423;SDS011;22458;45.328;9.514;2023-04-24T06:39:16;10.52;;;9.27;;
36423;SDS011;22458;45.328;9.514;2023-04-24T06:41:42;10.57;;;9.00;;
36423;SDS011;22458;45.328;9.514;2023-04-24T06:44:17;11.27;;;9.68;;
36423;SDS011;22458;45.328;9.514;2023-04-24T06:46:43;11.70;;;9.90;;
36423;SDS011;22458;45.328;9.514;2023-04-24T06:49:09;10.90;;;9.80;;
36423;SDS011;22458;45.328;9.514;2023-04-24T06:51:35;12.40;;;9.38;;
36423;SDS011;22458;45.328;9.514;2023-04-24T06:54:01;10.75;;;9.23;;
36423;SDS011;22458;45.328;9.514;2023-04-24T06:56:27;12.85;;;9.38;;
36423;SDS011;22458;45.328;9.514;2023-04-24T06:58:57;11.68;;;9.70;;
36423;SDS011;22458;45.328;9.514;2023-04-24T07:01:23;10.90;;;9.10;;
36423;SDS011;22458;45.328;9.514;2023-04-24T07:03:48;11.23;;;8.98;;
36423;SDS011;22458;45.328;9.514;2023-04-24T07:06:14;12.77;;;8.93;;
36423;SDS011;22458;45.328;9.514;2023-04-24T07:08:43;10.70;;;8.90;;
36423;SDS011;22458;45.328;9.514;2023-04-24T07:11:09;11.68;;;8.60;;
36423;SDS011;22458;45.328;9.514;2023-04-24T07:13:35;9.07;;;8.00;;
36423;SDS011;22458;45.328;9.514;2023-04-24T07:16:01;10.57;;;8.25;;
36423;SDS011;22458;45.328;9.514;2023-04-24T07:18:27;9.63;;;8.63;;
36423;SDS011;22458;45.328;9.514;2023-04-24T07:20:53;10.27;;;8.80;;
36423;SDS011;22458;45.328;9.514;2023-04-24T07:23:19;10.20;;;8.40;;
36423;SDS011;22458;45.328;9.514;2023-04-24T07:25:45;11.25;;;9.20;;
36423;SDS011;22458;45.328;9.514;2023-04-24T07:28:12;10.73;;;9.63;;
36423;SDS011;22458;45.328;9.514;2023-04-24T07:30:38;10.15;;;9.10;;
36423;SDS011;22458;45.328;9.514;2023-04-24T07:33:04;10.07;;;9.05;;
36423;SDS011;22458;45.328;9.514;2023-04-24T07:35:30;13.82;;;10.63;;
36423;SDS011;22458;45.328;9.514;2023-04-24T07:37:55;11.68;;;9.73;;
36423;SDS011;22458;45.328;9.514;2023-04-24T07:40:21;11.88;;;10.27;;
36423;SDS011;22458;45.328;9.514;2023-04-24T07:42:48;11.73;;;9.80;;
36423;SDS011;22458;45.328;9.514;2023-04-24T07:45:14;11.20;;;9.95;;
36423;SDS011;22458;45.328;9.514;2023-04-24T07:47:43;10.68;;;9.57;;
36423;SDS011;22458;45.328;9.514;2023-04-24T07:50:11;11.65;;;9.88;;
36423;SDS011;22458;45.328;9.514;2023-04-24T07:52:37;11.60;;;10.10;;
36423;SDS011;22458;45.328;9.514;2023-04-24T07:55:04;10.60;;;9.50;;
36423;SDS011;22458;45.328;9.514;2023-04-24T07:57:31;12.88;;;10.45;;
36423;SDS011;22458;45.328;9.514;2023-04-24T08:00:02;10.90;;;8.95;;
36423;SDS011;22458;45.328;9.514;2023-04-24T08:02:42;10.82;;;9.73;;
36423;SDS011;22458;45.328;9.514;2023-04-24T08:05:08;12.43;;;10.10;;
36423;SDS011;22458;45.328;9.514;2023-04-24T08:07:34;10.23;;;9.20;;
36423;SDS011;22458;45.328;9.514;2023-04-24T08:10:01;10.73;;;9.13;;
36423;SDS011;22458;45.328;9.514;2023-04-24T08:12:28;12.48;;;9.63;;
36423;SDS011;22458;45.328;9.514;2023-04-24T08:14:54;9.50;;;8.52;;
36423;SDS011;22458;45.328;9.514;2023-04-24T08:17:20;9.25;;;8.25;;
36423;SDS011;22458;45.328;9.514;2023-04-24T08:19:46;9.13;;;7.93;;
36423;SDS011;22458;45.328;9.514;2023-04-24T08:22:16;9.50;;;8.18;;
36423;SDS011;22458;45.328;9.514;2023-04-24T08:24:42;9.10;;;7.72;;
36423;SDS011;22458;45.328;9.514;2023-04-24T08:27:09;9.05;;;7.60;;
36423;SDS011;22458;45.328;9.514;2023-04-24T08:29:35;8.65;;;7.85;;
36423;SDS011;22458;45.328;9.514;2023-04-24T08:32:01;8.18;;;7.32;;
36423;SDS011;22458;45.328;9.514;2023-04-24T08:34:27;8.93;;;7.10;;
36423;SDS011;22458;45.328;9.514;2023-04-24T08:36:53;8.80;;;7.78;;
36423;SDS011;22458;45.328;9.514;2023-04-24T08:39:19;10.13;;;6.57;;
36423;SDS011;22458;45.328;9.514;2023-04-24T08:41:45;7.53;;;6.82;;
36423;SDS011;22458;45.328;9.514;2023-04-24T08:44:13;8.27;;;6.82;;
36423;SDS011;22458;45.328;9.514;2023-04-24T08:46:42;7.28;;;6.57;;
36423;SDS011;22458;45.328;9.514;2023-04-24T08:49:12;10.55;;;6.80;;
36423;SDS011;22458;45.328;9.514;2023-04-24T08:51:41;7.10;;;6.40;;
36423;SDS011;22458;45.328;9.514;2023-04-24T08:54:07;6.88;;;5.68;;
36423;SDS011;22458;45.328;9.514;2023-04-24T08:56:36;7.93;;;6.63;;
36423;SDS011;22458;45.328;9.514;2023-04-24T08:59:05;7.13;;;6.40;;
36423;SDS011;22458;45.328;9.514;2023-04-24T09:01:31;10.35;;;6.25;;
36423;SDS011;22458;45.328;9.514;2023-04-24T09:03:58;5.97;;;5.38;;
36423;SDS011;22458;45.328;9.514;2023-04-24T09:06:28;5.28;;;3.88;;
36423;SDS011;22458;45.328;9.514;2023-04-24T09:08:55;5.30;;;4.43;;
36423;SDS011;22458;45.328;9.514;2023-04-24T09:11:25;7.28;;;5.93;;
36423;SDS011;22458;45.328;9.514;2023-04-24T09:13:53;5.85;;;5.25;;
36423;SDS011;22458;45.328;9.514;2023-04-24T09:16:19;7.85;;;5.80;;
36423;SDS011;22458;45.328;9.514;2023-04-24T09:18:45;6.43;;;5.82;;
36423;SDS011;22458;45.328;9.514;2023-04-24T09:21:11;6.35;;;5.63;;
36423;SDS011;22458;45.328;9.514;2023-04-24T09:23:37;6.70;;;5.28;;
36423;SDS011;22458;45.328;9.514;2023-04-24T09:26:04;6.10;;;5.18;;
36423;SDS011;22458;45.328;9.514;2023-04-24T09:28:35;8.98;;;5.22;;
36423;SDS011;22458;45.328;9.514;2023-04-24T09:41:58;5.95;;;5.35;;
36423;SDS011;22458;45.328;9.514;2023-04-24T09:44:27;7.35;;;6.65;;
36423;SDS011;22458;45.328;9.514;2023-04-24T09:46:54;6.50;;;5.53;;
36423;SDS011;22458;45.328;9.514;2023-04-24T09:49:22;6.57;;;5.97;;
36423;SDS011;22458;45.328;9.514;2023-04-24T09:51:50;6.85;;;5.32;;
36423;SDS011;22458;45.328;9.514;2023-04-24T09:54:19;6.78;;;5.60;;
36423;SDS011;22458;45.328;9.514;2023-04-24T09:56:47;6.35;;;5.20;;
36423;SDS011;22458;45.328;9.514;2023-04-24T09:59:15;7.18;;;5.85;;
36423;SDS011;22458;45.328;9.514;2023-04-24T10:01:42;5.53;;;5.03;;
36423;SDS011;22458;45.328;9.514;2023-04-24T10:04:19;5.40;;;4.90;;
36423;SDS011;22458;45.328;9.514;2023-04-24T10:06:50;5.50;;;4.95;;
36423;SDS011;22458;45.328;9.514;2023-04-24T10:09:18;6.05;;;5.03;;
36423;SDS011;22458;45.328;9.514;2023-04-24T10:11:45;5.25;;;4.75;;
36423;SDS011;22458;45.328;9.514;2023-04-24T10:14:14;5.80;;;4.60;;
36423;SDS011;22458;45.328;9.514;2023-04-24T10:16:42;5.07;;;4.57;;
36423;SDS011;22458;45.328;9.514;2023-04-24T10:19:09;5.72;;;4.25;;
36423;SDS011;22458;45.328;9.514;2023-04-24T10:21:36;4.85;;;4.10;;
36423;SDS011;22458;45.328;9.514;2023-04-24T10:24:07;5.88;;;4.75;;
36423;SDS011;22458;45.328;9.514;2023-04-24T10:26:33;4.00;;;3.60;;
36423;SDS011;22458;45.328;9.514;2023-04-24T10:29:00;4.78;;;3.88;;
36423;SDS011;22458;45.328;9.514;2023-04-24T10:31:28;5.00;;;4.47;;
36423;SDS011;22458;45.328;9.514;2023-04-24T10:33:57;5.47;;;4.40;;
36423;SDS011;22458;45.328;9.514;2023-04-24T10:36:25;5.07;;;4.55;;
36423;SDS011;22458;45.328;9.514;2023-04-24T10:38:54;4.78;;;4.10;;
36423;SDS011;22458;45.328;9.514;2023-04-24T10:41:20;4.95;;;4.20;;
36423;SDS011;22458;45.328;9.514;2023-04-24T10:43:48;5.07;;;3.95;;
36423;SDS011;22458;45.328;9.514;2023-04-24T10:46:32;5.20;;;4.13;;
36423;SDS011;22458;45.328;9.514;2023-04-24T10:48:58;3.75;;;3.35;;
36423;SDS011;22458;45.328;9.514;2023-04-24T10:51:24;4.78;;;4.38;;
36423;SDS011;22458;45.328;9.514;2023-04-24T10:54:28;4.22;;;3.55;;
36423;SDS011;22458;45.328;9.514;2023-04-24T10:59:43;2.97;;;2.67;;
36423;SDS011;22458;45.328;9.514;2023-04-24T11:02:10;3.13;;;2.45;;
36423;SDS011;22458;45.328;9.514;2023-04-24T11:04:36;3.63;;;3.03;;
36423;SDS011;22458;45.328;9.514;2023-04-24T11:07:02;4.97;;;3.40;;
36423;SDS011;22458;45.328;9.514;2023-04-24T11:09:30;3.92;;;3.22;;
36423;SDS011;22458;45.328;9.514;2023-04-24T11:12:09;4.40;;;2.97;;
36423;SDS011;22458;45.328;9.514;2023-04-24T11:20:07;1.92;;;1.60;;
36423;SDS011;22458;45.328;9.514;2023-04-24T11:22:37;1.75;;;1.30;;
36423;SDS011;22458;45.328;9.514;2023-04-24T11:25:07;2.15;;;1.23;;
36423;SDS011;22458;45.328;9.514;2023-04-24T11:27:43;2.75;;;2.08;;
36423;SDS011;22458;45.328;9.514;2023-04-24T11:30:11;4.15;;;2.28;;
36423;SDS011;22458;45.328;9.514;2023-04-24T11:32:38;2.50;;;2.10;;
36423;SDS011;22458;45.328;9.514;2023-04-24T11:35:13;6.40;;;1.88;;
36423;SDS011;22458;45.328;9.514;2023-04-24T11:37:44;2.08;;;1.70;;
36423;SDS011;22458;45.328;9.514;2023-04-24T11:40:21;2.63;;;2.05;;
36423;SDS011;22458;45.328;9.514;2023-04-24T11:42:56;1.83;;;1.55;;
36423;SDS011;22458;45.328;9.514;2023-04-24T11:45:28;1.83;;;1.52;;
36423;SDS011;22458;45.328;9.514;2023-04-24T11:47:55;2.30;;;1.48;;
36423;SDS011;22458;45.328;9.514;2023-04-24T11:50:23;2.25;;;1.35;;
36423;SDS011;22458;45.328;9.514;2023-04-24T11:52:53;1.50;;;1.10;;
36423;SDS011;22458;45.328;9.514;2023-04-24T11:57:47;2.20;;;1.20;;
36423;SDS011;22458;45.328;9.514;2023-04-24T12:00:18;1.00;;;0.80;;
36423;SDS011;22458;45.328;9.514;2023-04-24T12:02:48;1.80;;;0.90;;
36423;SDS011;22458;45.328;9.514;2023-04-24T12:05:22;1.70;;;1.08;;
36423;SDS011;22458;45.328;9.514;2023-04-24T12:07:49;1.65;;;1.00;;
36423;SDS011;22458;45.328;9.514;2023-04-24T12:10:19;2.40;;;0.93;;
36423;SDS011;22458;45.328;9.514;2023-04-24T12:12:46;1.85;;;1.30;;
36423;SDS011;22458;45.328;9.514;2023-04-24T12:15:12;1.52;;;0.90;;
36423;SDS011;22458;45.328;9.514;2023-04-24T12:17:41;2.08;;;1.15;;
36423;SDS011;22458;45.328;9.514;2023-04-24T12:20:07;1.83;;;1.10;;
36423;SDS011;22458;45.328;9.514;2023-04-24T12:22:46;1.52;;;0.95;;
36423;SDS011;22458;45.328;9.514;2023-04-24T12:25:14;1.20;;;1.10;;
36423;SDS011;22458;45.328;9.514;2023-04-24T12:27:41;1.73;;;0.87;;
36423;SDS011;22458;45.328;9.514;2023-04-24T12:30:12;1.85;;;0.80;;
36423;SDS011;22458;45.328;9.514;2023-04-24T12:32:47;2.00;;;0.88;;
36423;SDS011;22458;45.328;9.514;2023-04-24T12:35:19;1.63;;;0.77;;
36423;SDS011;22458;45.328;9.514;2023-04-24T12:37:46;0.95;;;0.60;;
36423;SDS011;22458;45.328;9.514;2023-04-24T12:40:12;1.83;;;0.70;;
36423;SDS011;22458;45.328;9.514;2023-04-24T12:42:42;3.30;;;0.80;;
36423;SDS011;22458;45.328;9.514;2023-04-24T12:45:08;1.95;;;0.98;;
36423;SDS011;22458;45.328;9.514;2023-04-24T12:47:37;1.42;;;0.70;;
36423;SDS011;22458;45.328;9.514;2023-04-24T12:50:04;0.80;;;0.50;;
36423;SDS011;22458;45.328;9.514;2023-04-24T12:52:34;1.30;;;0.60;;
36423;SDS011;22458;45.328;9.514;2023-04-24T12:55:00;0.90;;;0.60;;
36423;SDS011;22458;45.328;9.514;2023-04-24T12:57:27;1.27;;;0.50;;
36423;SDS011;22458;45.328;9.514;2023-04-24T12:59:54;0.65;;;0.30;;
36423;SDS011;22458;45.328;9.514;2023-04-24T13:02:24;0.93;;;0.30;;
36423;SDS011;22458;45.328;9.514;2023-04-24T13:04:52;1.08;;;0.40;;
36423;SDS011;22458;45.328;9.514;2023-04-24T13:07:19;0.60;;;0.30;;
36423;SDS011;22458;45.328;9.514;2023-04-24T13:09:45;0.40;;;0.20;;
36423;SDS011;22458;45.328;9.514;2023-04-24T13:12:13;0.40;;;0.20;;
36423;SDS011;22458;45.328;9.514;2023-04-24T13:14:39;0.80;;;0.45;;
36423;SDS011;22458;45.328;9.514;2023-04-24T13:17:05;0.82;;;0.30;;
36423;SDS011;22458;45.328;9.514;2023-04-24T13:19:39;0.70;;;0.30;;
36423;SDS011;22458;45.328;9.514;2023-04-24T13:22:06;3.38;;;1.50;;
36423;SDS011;22458;45.328;9.514;2023-04-24T13:24:34;0.50;;;0.20;;
36423;SDS011;22458;45.328;9.514;2023-04-24T13:27:00;1.42;;;0.15;;
36423;SDS011;22458;45.328;9.514;2023-04-24T13:29:26;0.82;;;0.28;;
36423;SDS011;22458;45.328;9.514;2023-04-24T13:31:52;0.40;;;0.20;;
36423;SDS011;22458;45.328;9.514;2023-04-24T13:34:22;0.40;;;0.13;;
36423;SDS011;22458;45.328;9.514;2023-04-24T13:36:52;0.95;;;0.22;;
36423;SDS011;22458;45.328;9.514;2023-04-24T13:39:19;1.42;;;0.40;;
36423;SDS011;22458;45.328;9.514;2023-04-24T13:41:47;1.00;;;0.40;;
36423;SDS011;22458;45.328;9.514;2023-04-24T13:44:16;3.15;;;0.50;;
36423;SDS011;22458;45.328;9.514;2023-04-24T13:46:46;2.72;;;0.68;;
36423;SDS011;22458;45.328;9.514;2023-04-24T13:49:13;3.08;;;0.73;;
36423;SDS011;22458;45.328;9.514;2023-04-24T13:51:40;1.65;;;0.75;;
36423;SDS011;22458;45.328;9.514;2023-04-24T13:54:06;0.68;;;0.40;;
36423;SDS011;22458;45.328;9.514;2023-04-24T13:56:32;1.38;;;0.17;;
36423;SDS011;22458;45.328;9.514;2023-04-24T13:58:58;0.70;;;0.40;;
36423;SDS011;22458;45.328;9.514;2023-04-24T14:01:24;0.52;;;0.20;;
36423;SDS011;22458;45.328;9.514;2023-04-24T14:03:50;0.40;;;0.20;;
36423;SDS011;22458;45.328;9.514;2023-04-24T14:06:19;0.20;;;0.10;;
36423;SDS011;22458;45.328;9.514;2023-04-24T14:08:46;2.00;;;0.73;;
36423;SDS011;22458;45.328;9.514;2023-04-24T14:11:12;0.32;;;0.20;;
36423;SDS011;22458;45.328;9.514;2023-04-24T14:13:40;0.77;;;0.30;;
36423;SDS011;22458;45.328;9.514;2023-04-24T14:16:07;0.20;;;0.10;;
36423;SDS011;22458;45.328;9.514;2023-04-24T14:18:33;0.32;;;0.20;;
36423;SDS011;22458;45.328;9.514;2023-04-24T14:20:59;0.20;;;0.10;;
36423;SDS011;22458;45.328;9.514;2023-04-24T14:23:26;1.23;;;0.45;;
36423;SDS011;22458;45.328;9.514;2023-04-24T14:25:52;0.40;;;0.30;;
36423;SDS011;22458;45.328;9.514;2023-04-24T14:28:18;1.63;;;1.00;;
36423;SDS011;22458;45.328;9.514;2023-04-24T14:30:45;0.40;;;0.13;;
36423;SDS011;22458;45.328;9.514;2023-04-24T14:33:11;1.40;;;0.20;;
36423;SDS011;22458;45.328;9.514;2023-04-24T14:35:38;0.20;;;0.10;;
36423;SDS011;22458;45.328;9.514;2023-04-24T14:38:05;0.20;;;0.10;;
36423;SDS011;22458;45.328;9.514;2023-04-24T14:40:31;3.15;;;0.88;;
36423;SDS011;22458;45.328;9.514;2023-04-24T14:42:57;1.15;;;0.40;;
36423;SDS011;22458;45.328;9.514;2023-04-24T14:45:27;1.15;;;0.20;;
36423;SDS011;22458;45.328;9.514;2023-04-24T14:47:53;0.73;;;0.20;;
36423;SDS011;22458;45.328;9.514;2023-04-24T14:50:19;1.10;;;0.20;;
36423;SDS011;22458;45.328;9.514;2023-04-24T14:52:45;0.60;;;0.20;;
36423;SDS011;22458;45.328;9.514;2023-04-24T14:55:11;2.78;;;1.60;;
36423;SDS011;22458;45.328;9.514;2023-04-24T14:57:38;2.33;;;1.73;;
36423;SDS011;22458;45.328;9.514;2023-04-24T15:00:05;18.05;;;12.98;;
36423;SDS011;22458;45.328;9.514;2023-04-24T15:02:33;3.20;;;2.53;;
36423;SDS011;22458;45.328;9.514;2023-04-24T15:05:02;5.18;;;4.35;;
36423;SDS011;22458;45.328;9.514;2023-04-24T15:07:29;2.28;;;0.75;;
36423;SDS011;22458;45.328;9.514;2023-04-24T15:09:54;0.50;;;0.30;;
36423;SDS011;22458;45.328;9.514;2023-04-24T15:12:21;0.70;;;0.32;;